Terminal Aerodrome Forecast
Issued by NWS Twin Cities, MN

Home | Current Version | Previous Version | Text Only | Print | Product List | Glossary On
Versions: 1 2 3 4 5 6 7 8 9 10 11 12 13 14 15 16 17
588
FTUS43 KMPX 211740
TAFEAU
TAF
KEAU 211740Z 2118/2218 05004KT 4SM BR OVC070
     FM212100 04007KT P6SM OVC060
     FM220800 04010KT P6SM VCSH OVC008
     FM221000 04011KT 3SM -SN OVC008
     FM221300 04014KT 1 1/2SM -SN BR OVC008
     FM221600 04016G24KT 3/4SM -SN BR VV007=

USA.gov is the U.S. government's official web portal to all federal, state and local government web resources and services.